createdAt,value
2023-03-15T00:01:23.315Z,29.87
2023-03-15T00:03:55.136Z,30.38
2023-03-15T00:06:24.780Z,29.69
2023-03-15T00:08:54.072Z,30.55
2023-03-15T00:11:23.591Z,31.34
2023-03-15T00:13:53.047Z,31.32
2023-03-15T00:16:37.826Z,31.95
2023-03-15T00:19:07.165Z,33.73
2023-03-15T00:21:36.984Z,31.84
2023-03-15T00:24:06.862Z,32.55
2023-03-15T00:26:36.387Z,33.34
2023-03-15T00:29:05.811Z,32.96
2023-03-15T00:31:37.238Z,31.45
2023-03-15T00:34:06.605Z,31.70
2023-03-15T00:36:36.334Z,32.39
2023-03-15T00:39:05.724Z,31.53
2023-03-15T00:41:35.793Z,33.20
2023-03-15T00:44:05.479Z,31.87
2023-03-15T00:46:36.680Z,31.60
2023-03-15T00:49:06.021Z,32.39
2023-03-15T00:51:37.560Z,31.26
2023-03-15T00:54:07.292Z,32.24
2023-03-15T00:56:37.907Z,33.68
2023-03-15T00:59:07.624Z,33.90
2023-03-15T01:01:41.310Z,33.44
2023-03-15T01:04:12.255Z,32.59
2023-03-15T01:06:43.266Z,33.53
2023-03-15T01:09:13.187Z,31.23
2023-03-15T01:11:42.924Z,31.04
2023-03-15T01:14:12.724Z,31.46
2023-03-15T01:16:44.103Z,32.21
2023-03-15T01:19:14.184Z,31.20
2023-03-15T01:21:44.232Z,32.33
2023-03-15T01:24:15.602Z,32.44
2023-03-15T01:26:45.482Z,31.40
2023-03-15T01:29:14.973Z,32.01
2023-03-15T01:31:46.378Z,30.74
2023-03-15T01:34:16.146Z,31.56
2023-03-15T01:36:45.843Z,30.38
2023-03-15T01:39:15.695Z,31.17
2023-03-15T01:41:47.580Z,32.21
2023-03-15T01:44:19.037Z,30.52
2023-03-15T01:46:51.931Z,29.20
2023-03-15T01:49:27.394Z,29.12
2023-03-15T01:52:02.469Z,28.35
2023-03-15T01:54:45.189Z,33.15
2023-03-15T01:57:19.167Z,32.20
2023-03-15T01:59:53.089Z,29.93
2023-03-15T02:02:26.478Z,30.92
2023-03-15T02:05:04.714Z,31.23
2023-03-15T02:07:34.931Z,30.02
2023-03-15T02:10:09.491Z,30.40
2023-03-15T02:12:45.570Z,29.21
2023-03-15T02:15:16.916Z,29.19
2023-03-15T02:17:49.751Z,27.93
2023-03-15T02:20:36.213Z,28.74
2023-03-15T02:23:09.622Z,30.95
2023-03-15T02:25:47.166Z,27.83
2023-03-15T02:28:20.081Z,28.49
2023-03-15T02:30:50.810Z,30.79
2023-03-15T02:33:25.431Z,28.91
2023-03-15T02:35:55.702Z,28.69
2023-03-15T02:38:25.442Z,27.49
2023-03-15T02:40:55.796Z,28.82
2023-03-15T02:43:30.851Z,27.38
2023-03-15T02:46:01.443Z,29.09
2023-03-15T02:48:33.106Z,30.44
2023-03-15T02:51:03.373Z,28.74
2023-03-15T02:53:33.560Z,28.78
2023-03-15T02:56:03.716Z,29.22
2023-03-15T02:58:34.917Z,26.65
2023-03-15T03:01:05.116Z,28.12
2023-03-15T03:03:34.859Z,27.15
2023-03-15T03:06:04.368Z,26.45
2023-03-15T03:08:34.782Z,28.79
2023-03-15T03:11:04.912Z,26.86
2023-03-15T03:13:36.014Z,30.01
2023-03-15T03:16:08.017Z,28.46
2023-03-15T03:18:37.983Z,27.76
2023-03-15T03:21:09.627Z,28.42
2023-03-15T03:23:39.346Z,28.98
2023-03-15T03:26:16.990Z,27.97
2023-03-15T03:28:50.314Z,28.95
2023-03-15T03:36:14.593Z,26.22
2023-03-15T03:38:46.439Z,26.03
2023-03-15T03:41:17.094Z,26.18
2023-03-15T03:43:46.549Z,26.13
2023-03-15T03:46:17.880Z,26.29
2023-03-15T03:48:51.763Z,27.41
2023-03-15T03:51:21.706Z,28.78
2023-03-15T03:53:51.250Z,30.47
2023-03-15T03:56:20.965Z,30.73
2023-03-15T03:58:51.182Z,28.71
2023-03-15T04:01:27.648Z,29.85
2023-03-15T04:03:57.782Z,27.98
2023-03-15T04:06:27.653Z,28.02
2023-03-15T04:08:57.222Z,27.82
2023-03-15T04:11:43.816Z,29.85
2023-03-15T04:14:14.158Z,27.46
2023-03-15T04:16:47.196Z,28.28
2023-03-15T04:19:19.059Z,27.36
2023-03-15T04:21:48.671Z,28.13
2023-03-15T04:24:29.998Z,29.04
2023-03-15T04:27:14.741Z,28.93
2023-03-15T04:30:14.169Z,29.18
2023-03-15T04:32:47.972Z,28.86
2023-03-15T04:35:30.814Z,27.94
2023-03-15T04:38:11.203Z,29.33
2023-03-15T04:40:59.151Z,28.53
2023-03-15T04:43:39.946Z,26.63
2023-03-15T04:46:25.235Z,26.37
2023-03-15T04:49:15.285Z,27.19
2023-03-15T04:52:10.920Z,26.69
2023-03-15T04:55:05.211Z,26.32
2023-03-15T04:58:00.698Z,28.42
2023-03-15T05:00:46.748Z,29.39
2023-03-15T05:03:32.279Z,29.58
2023-03-15T05:06:22.295Z,29.93
2023-03-15T05:08:51.661Z,27.56
2023-03-15T05:11:24.848Z,29.34
2023-03-15T05:14:13.102Z,28.49
2023-03-15T05:17:09.017Z,27.75
2023-03-15T05:19:56.063Z,27.42
2023-03-15T05:22:40.218Z,27.97
2023-03-15T05:25:28.353Z,27.62
2023-03-15T05:28:11.246Z,27.89
2023-03-15T05:30:49.561Z,26.75
2023-03-15T05:33:28.175Z,26.46
2023-03-15T05:36:15.555Z,26.19
2023-03-15T05:39:19.275Z,26.10
2023-03-15T05:42:07.243Z,25.72
2023-03-15T05:45:00.509Z,27.66
2023-03-15T05:47:48.756Z,27.49
2023-03-15T05:50:37.092Z,27.94
2023-03-15T05:53:19.192Z,27.55
2023-03-15T05:56:28.731Z,26.34
2023-03-15T05:59:18.512Z,28.53
2023-03-15T06:02:14.549Z,27.71
2023-03-15T06:04:52.996Z,28.80
2023-03-15T06:07:27.081Z,27.41
2023-03-15T06:09:56.691Z,28.16
2023-03-15T06:12:28.000Z,27.55
2023-03-15T06:14:57.656Z,27.63
2023-03-15T06:17:27.858Z,27.32
2023-03-15T06:19:57.278Z,27.65
2023-03-15T06:22:26.954Z,25.99
2023-03-15T06:25:01.024Z,26.52
2023-03-15T06:27:33.242Z,27.31
2023-03-15T06:30:03.481Z,27.33
2023-03-15T06:32:33.617Z,26.89
2023-03-15T06:35:05.039Z,28.16
2023-03-15T06:37:36.219Z,27.75
2023-03-15T06:40:08.879Z,26.54
2023-03-15T06:42:41.762Z,29.35
2023-03-15T06:45:15.286Z,26.09
2023-03-15T06:47:45.175Z,29.37
2023-03-15T06:50:15.284Z,29.19
2023-03-15T06:52:44.997Z,29.71
2023-03-15T06:55:18.309Z,29.95
2023-03-15T06:57:50.085Z,28.56
2023-03-15T07:00:20.154Z,27.51
2023-03-15T07:02:50.113Z,28.91
2023-03-15T07:05:19.464Z,28.88
2023-03-15T07:07:49.104Z,26.42
2023-03-15T07:10:18.831Z,26.27
2023-03-15T07:12:49.738Z,27.98
2023-03-15T07:15:19.448Z,26.64
2023-03-15T07:17:49.192Z,27.18
2023-03-15T07:20:18.793Z,27.47
2023-03-15T07:22:49.850Z,30.35
2023-03-15T07:25:24.188Z,28.96
2023-03-15T07:27:55.912Z,28.92
2023-03-15T07:30:25.265Z,26.95
2023-03-15T07:32:55.192Z,27.79
2023-03-15T07:35:24.760Z,28.62
2023-03-15T07:37:54.534Z,29.07
2023-03-15T07:40:26.429Z,27.67
2023-03-15T07:42:57.569Z,27.20
2023-03-15T07:45:26.905Z,28.66
2023-03-15T07:47:56.701Z,28.31
2023-03-15T07:50:27.537Z,28.10
2023-03-15T07:52:57.881Z,28.67
2023-03-15T07:55:27.717Z,26.73
2023-03-15T07:57:59.159Z,27.30
2023-03-15T08:00:28.992Z,27.16
2023-03-15T08:02:58.941Z,27.22
2023-03-15T08:05:29.270Z,28.26
2023-03-15T08:07:58.913Z,24.75
2023-03-15T08:10:28.539Z,26.20
2023-03-15T08:12:59.558Z,25.70
2023-03-15T08:15:29.045Z,26.66
2023-03-15T08:17:59.764Z,27.01
2023-03-15T08:20:29.905Z,26.81
2023-03-15T08:22:59.927Z,26.09
2023-03-15T08:25:30.158Z,26.45
2023-03-15T08:28:02.247Z,25.69
2023-03-15T08:30:32.046Z,27.12
2023-03-15T08:33:01.701Z,25.52
2023-03-15T08:35:33.118Z,25.98
2023-03-15T08:38:03.818Z,27.22
2023-03-15T08:40:33.573Z,29.24
2023-03-15T08:43:04.723Z,29.28
2023-03-15T08:45:51.034Z,28.23
2023-03-15T08:48:23.744Z,26.46
2023-03-15T08:50:53.174Z,25.37
2023-03-15T08:53:22.861Z,26.78
2023-03-15T08:55:52.223Z,26.27
2023-03-15T08:58:23.177Z,25.69
2023-03-15T09:00:53.122Z,22.97
2023-03-15T09:03:23.961Z,22.87
2023-03-15T09:05:58.278Z,24.36
2023-03-15T09:08:28.428Z,23.56
2023-03-15T09:10:58.828Z,22.69
2023-03-15T09:13:30.623Z,23.54
2023-03-15T09:16:00.062Z,23.94
2023-03-15T09:18:29.638Z,24.70
2023-03-15T09:20:58.943Z,23.68
2023-03-15T09:23:28.776Z,21.12
2023-03-15T09:25:58.227Z,20.87
2023-03-15T09:28:29.539Z,19.79
2023-03-15T09:31:00.137Z,19.53
2023-03-15T09:33:29.887Z,20.44
2023-03-15T09:35:59.427Z,21.96
2023-03-15T09:38:29.381Z,21.94
2023-03-15T09:41:00.390Z,21.69
2023-03-15T09:44:02.712Z,21.13
2023-03-15T09:46:35.269Z,23.21
2023-03-15T09:49:13.954Z,22.41
2023-03-15T09:51:48.651Z,21.34
2023-03-15T09:54:23.859Z,20.39
2023-03-15T09:56:58.948Z,19.56
2023-03-15T09:59:34.348Z,19.14
2023-03-15T10:02:15.810Z,20.39
2023-03-15T10:04:48.298Z,20.37
2023-03-15T10:07:19.226Z,20.92
2023-03-15T10:09:49.185Z,21.44
2023-03-15T10:12:25.544Z,21.70
2023-03-15T10:15:12.084Z,21.84
2023-03-15T10:17:50.280Z,18.61
2023-03-15T10:20:23.840Z,18.35
2023-03-15T10:23:01.453Z,17.77
2023-03-15T10:25:32.446Z,18.96
2023-03-15T10:28:06.722Z,19.81
2023-03-15T10:30:39.491Z,21.35
2023-03-15T10:33:18.424Z,21.79
2023-03-15T10:35:48.502Z,22.03
2023-03-15T10:38:20.529Z,20.63
2023-03-15T10:40:52.412Z,21.11
2023-03-15T10:43:24.104Z,20.17
2023-03-15T10:46:06.032Z,19.09
2023-03-15T10:48:37.772Z,21.46
2023-03-15T10:51:15.873Z,22.17
2023-03-15T10:53:56.317Z,21.69
2023-03-15T10:56:28.756Z,22.05
2023-03-15T10:59:11.901Z,22.00
2023-03-15T11:01:44.611Z,22.53
2023-03-15T11:04:19.067Z,22.57
2023-03-15T11:06:50.976Z,22.48
2023-03-15T11:09:23.665Z,22.41
2023-03-15T11:12:00.815Z,22.60
2023-03-15T11:14:36.052Z,23.15
2023-03-15T11:17:10.199Z,22.41
2023-03-15T11:19:44.000Z,22.72
2023-03-15T11:22:16.326Z,22.15
2023-03-15T11:24:45.626Z,19.80
2023-03-15T11:27:18.537Z,15.58
2023-03-15T11:29:52.713Z,14.11
2023-03-15T11:32:26.319Z,14.05
2023-03-15T11:35:01.196Z,12.48
2023-03-15T11:37:37.496Z,12.34
2023-03-15T11:40:17.278Z,15.54
2023-03-15T11:42:54.747Z,15.62
2023-03-15T11:45:33.472Z,13.48
2023-03-15T11:48:30.033Z,11.93
2023-03-15T11:51:00.783Z,11.70
2023-03-15T11:53:35.294Z,12.08
2023-03-15T11:56:23.029Z,10.64
2023-03-15T11:59:06.513Z,10.08
2023-03-15T12:01:36.521Z,14.35
2023-03-15T12:04:38.285Z,14.98
2023-03-15T12:07:24.736Z,13.91
2023-03-15T12:09:56.533Z,11.29
2023-03-15T12:12:41.611Z,11.25
2023-03-15T12:15:46.013Z,11.20
2023-03-15T12:18:26.622Z,10.37
2023-03-15T12:21:20.668Z,10.96
2023-03-15T12:23:59.700Z,10.78
2023-03-15T12:26:39.355Z,10.71
2023-03-15T12:29:17.038Z,10.53
2023-03-15T12:31:53.798Z,10.41
2023-03-15T12:34:37.281Z,9.06
2023-03-15T12:37:13.963Z,8.59
2023-03-15T12:39:47.190Z,8.67
2023-03-15T12:42:54.313Z,8.62
2023-03-15T12:45:46.570Z,11.97
2023-03-15T12:48:30.422Z,12.15
2023-03-15T12:51:16.161Z,11.44
2023-03-15T12:53:52.230Z,12.29
2023-03-15T12:56:43.208Z,13.32
2023-03-15T12:59:24.972Z,12.41
2023-03-15T13:01:54.997Z,10.83
2023-03-15T13:04:25.450Z,9.28
2023-03-15T13:07:13.908Z,12.76
2023-03-15T13:10:11.824Z,13.78
2023-03-15T13:12:49.256Z,15.53
2023-03-15T13:15:25.188Z,16.26
2023-03-15T13:17:59.753Z,16.55
2023-03-15T13:20:42.588Z,16.70
2023-03-15T13:23:28.549Z,15.10
2023-03-15T13:26:16.223Z,10.58
2023-03-15T13:28:50.860Z,9.58
2023-03-15T13:31:25.022Z,8.82
2023-03-15T13:33:57.582Z,9.88
2023-03-15T13:36:30.301Z,10.65
2023-03-15T13:38:59.709Z,14.22
2023-03-15T13:41:32.279Z,15.31
2023-03-15T13:44:06.814Z,16.02
2023-03-15T13:46:36.717Z,16.85
2023-03-15T13:49:06.715Z,18.28
2023-03-15T13:51:39.002Z,18.32
2023-03-15T13:54:12.837Z,18.37
2023-03-15T13:56:55.803Z,17.22
2023-03-15T13:59:28.799Z,17.22
2023-03-15T14:01:59.489Z,15.64
2023-03-15T14:04:29.142Z,14.93
2023-03-15T14:07:15.042Z,14.09
2023-03-15T14:09:44.302Z,15.03
2023-03-15T14:12:23.222Z,12.57
2023-03-15T14:14:54.928Z,12.57
2023-03-15T14:17:29.891Z,13.44
2023-03-15T14:20:18.525Z,11.68
2023-03-15T14:22:48.150Z,12.22
2023-03-15T14:25:22.729Z,10.62
2023-03-15T14:27:53.668Z,11.29
2023-03-15T14:30:25.732Z,11.54
2023-03-15T14:32:58.944Z,11.11
2023-03-15T14:35:32.781Z,11.23
2023-03-15T14:38:09.837Z,10.23
2023-03-15T14:40:40.350Z,10.23
2023-03-15T14:43:12.243Z,9.63
2023-03-15T14:45:44.483Z,9.24
2023-03-15T14:48:17.061Z,10.56
2023-03-15T14:50:47.205Z,13.00
2023-03-15T14:53:19.297Z,12.96
2023-03-15T14:55:48.852Z,12.95
2023-03-15T14:58:21.985Z,13.31
2023-03-15T15:00:53.894Z,12.26
2023-03-15T15:03:31.389Z,12.74
2023-03-15T15:06:01.612Z,14.59
2023-03-15T15:08:32.430Z,14.00
2023-03-15T15:11:02.861Z,13.84
2023-03-15T15:13:34.008Z,13.03
2023-03-15T15:16:04.917Z,12.84
2023-03-15T15:18:36.730Z,13.53
2023-03-15T15:21:13.930Z,14.27
2023-03-15T15:23:57.270Z,14.63
2023-03-15T15:26:29.895Z,15.58
2023-03-15T15:29:01.786Z,14.91
2023-03-15T15:31:34.479Z,14.93
2023-03-15T15:34:04.545Z,14.14
2023-03-15T15:36:36.523Z,13.29
2023-03-15T15:39:14.934Z,14.23
2023-03-15T15:41:44.371Z,14.50
2023-03-15T15:44:18.029Z,15.05
2023-03-15T15:46:47.734Z,16.50
2023-03-15T15:49:18.346Z,15.98
2023-03-15T15:51:49.944Z,16.90
2023-03-15T15:54:22.993Z,18.17
2023-03-15T15:56:55.225Z,19.49
2023-03-15T15:59:27.281Z,20.05
2023-03-15T16:02:01.614Z,20.22
2023-03-15T16:04:33.022Z,20.18
2023-03-15T16:07:04.543Z,20.70
2023-03-15T16:09:36.396Z,19.62
2023-03-15T16:12:12.797Z,20.18
2023-03-15T16:14:44.185Z,20.00
2023-03-15T16:17:16.023Z,19.16
2023-03-15T16:19:45.884Z,19.28
2023-03-15T16:22:15.687Z,19.39
2023-03-15T16:24:48.375Z,19.34
2023-03-15T16:27:19.847Z,20.10
2023-03-15T16:29:53.148Z,19.02
2023-03-15T16:32:41.091Z,20.10
2023-03-15T16:35:15.903Z,19.39
2023-03-15T16:37:46.943Z,19.58
2023-03-15T16:40:23.925Z,20.17
2023-03-15T16:42:55.897Z,18.67
2023-03-15T16:45:27.874Z,19.19
2023-03-15T16:47:59.412Z,19.02
2023-03-15T16:50:29.256Z,19.63
2023-03-15T16:53:01.858Z,19.55
2023-03-15T16:55:34.197Z,20.74
2023-03-15T16:58:05.778Z,20.07
2023-03-15T17:00:37.161Z,20.04
2023-03-15T17:03:07.969Z,20.80
2023-03-15T17:05:37.621Z,21.16
2023-03-15T17:08:07.689Z,21.15
2023-03-15T17:10:41.567Z,21.20
2023-03-15T17:13:14.519Z,21.99
2023-03-15T17:15:45.625Z,21.89
2023-03-15T17:18:19.104Z,21.98
2023-03-15T17:20:50.854Z,23.42
2023-03-15T17:23:21.443Z,23.36
2023-03-15T17:25:51.358Z,22.29
2023-03-15T17:28:20.968Z,21.68
2023-03-15T17:30:59.635Z,22.61
2023-03-15T17:33:35.342Z,22.68
2023-03-15T17:36:07.289Z,22.86
2023-03-15T17:38:40.955Z,23.81
2023-03-15T17:41:21.283Z,23.60
2023-03-15T17:43:51.828Z,23.70
2023-03-15T17:46:28.293Z,23.86
2023-03-15T17:48:59.091Z,24.18
2023-03-15T17:51:31.916Z,24.21
2023-03-15T17:54:01.903Z,24.77
2023-03-15T17:56:31.920Z,25.32
2023-03-15T17:59:01.321Z,25.59
2023-03-15T18:01:35.237Z,25.60
2023-03-15T18:04:04.965Z,26.12
2023-03-15T18:06:34.818Z,26.62
2023-03-15T18:09:04.174Z,25.71
2023-03-15T18:11:36.658Z,26.29
2023-03-15T18:14:07.525Z,26.47
2023-03-15T18:16:38.999Z,27.70
2023-03-15T18:19:08.927Z,27.57
2023-03-15T18:21:38.681Z,27.49
2023-03-15T18:24:08.593Z,27.53
2023-03-15T18:26:38.441Z,27.73
2023-03-15T18:29:08.301Z,28.18
2023-03-15T18:31:39.253Z,28.85
2023-03-15T18:34:09.740Z,28.20
2023-03-15T18:36:39.583Z,28.10
2023-03-15T18:39:09.771Z,28.74
2023-03-15T18:41:39.592Z,28.11
2023-03-15T18:44:10.295Z,28.44
2023-03-15T18:46:43.887Z,27.89
2023-03-15T18:49:13.626Z,28.11
2023-03-15T18:51:43.611Z,28.34
2023-03-15T18:54:13.012Z,29.72
2023-03-15T18:56:43.197Z,29.71
2023-03-15T18:59:12.837Z,29.42
2023-03-15T19:01:44.133Z,29.75
2023-03-15T19:04:13.538Z,29.61
2023-03-15T19:06:43.937Z,29.57
2023-03-15T19:09:13.362Z,29.65
2023-03-15T19:11:43.591Z,30.10
2023-03-15T19:14:13.051Z,29.75
2023-03-15T19:16:44.377Z,30.31
2023-03-15T19:19:13.838Z,30.99
2023-03-15T19:21:43.532Z,31.00
2023-03-15T19:24:13.809Z,30.68
2023-03-15T19:26:44.607Z,30.64
2023-03-15T19:29:44.861Z,30.68
2023-03-15T19:32:15.761Z,31.43
2023-03-15T19:34:45.480Z,30.94
2023-03-15T19:37:15.379Z,31.28
2023-03-15T19:39:45.558Z,31.50
2023-03-15T19:42:15.204Z,31.56
2023-03-15T19:44:47.601Z,31.61
2023-03-15T19:47:18.976Z,31.70
2023-03-15T19:49:48.450Z,32.02
2023-03-15T19:52:18.310Z,31.96
2023-03-15T19:54:48.558Z,32.02
2023-03-15T19:57:18.704Z,32.35
2023-03-15T19:59:48.311Z,32.79
2023-03-15T20:02:19.382Z,33.47
2023-03-15T20:04:49.836Z,33.23
2023-03-15T20:07:23.059Z,32.87
2023-03-15T20:09:53.894Z,32.93
2023-03-15T20:12:23.724Z,33.08
2023-03-15T20:14:53.060Z,32.71
2023-03-15T20:17:25.867Z,32.24
2023-03-15T20:19:55.519Z,33.07
2023-03-15T20:22:26.877Z,33.02
2023-03-15T20:24:56.833Z,33.70
2023-03-15T20:27:26.891Z,33.66
2023-03-15T20:29:58.069Z,33.33
2023-03-15T20:32:29.684Z,33.29
2023-03-15T20:35:00.256Z,33.39
2023-03-15T20:37:31.870Z,33.36
2023-03-15T20:40:03.650Z,34.13
2023-03-15T20:42:33.992Z,33.70
2023-03-15T20:45:07.387Z,33.64
2023-03-15T20:47:39.362Z,34.05
2023-03-15T20:50:10.485Z,34.04
2023-03-15T20:52:41.194Z,33.71
2023-03-15T20:55:11.567Z,33.40
2023-03-15T20:57:42.777Z,33.71
2023-03-15T21:00:19.645Z,33.80
2023-03-15T21:02:51.120Z,33.64
2023-03-15T21:05:20.896Z,33.67
2023-03-15T21:07:50.465Z,33.77
2023-03-15T21:10:20.005Z,33.18
2023-03-15T21:12:49.798Z,34.02
2023-03-15T21:15:19.138Z,33.32
2023-03-15T21:17:51.028Z,33.61
2023-03-15T21:20:20.776Z,33.48
2023-03-15T21:22:51.458Z,33.66
2023-03-15T21:25:21.028Z,33.95
2023-03-15T21:27:51.252Z,33.61
2023-03-15T21:30:20.773Z,33.54
2023-03-15T21:32:52.433Z,34.01
2023-03-15T21:35:22.466Z,33.25
2023-03-15T21:37:52.332Z,33.28
2023-03-15T21:40:22.032Z,33.37
2023-03-15T21:42:51.654Z,33.26
2023-03-15T21:45:23.247Z,33.71
2023-03-15T21:47:54.195Z,33.47
2023-03-15T21:50:24.087Z,33.28
2023-03-15T21:52:53.913Z,33.54
2023-03-15T21:55:23.171Z,33.76
2023-03-15T21:57:52.964Z,34.47
2023-03-15T22:00:24.252Z,34.28
2023-03-15T22:02:55.913Z,33.43
2023-03-15T22:05:25.514Z,33.25
2023-03-15T22:07:54.997Z,34.29
2023-03-15T22:10:24.896Z,33.28
2023-03-15T22:12:55.466Z,33.43
2023-03-15T22:15:25.031Z,33.79
2023-03-15T22:17:56.098Z,33.32
2023-03-15T22:20:25.795Z,33.76
2023-03-15T22:22:55.484Z,33.62
2023-03-15T22:25:24.913Z,33.82
2023-03-15T22:27:54.520Z,33.67
2023-03-15T22:30:24.323Z,34.08
2023-03-15T22:32:55.655Z,33.43
2023-03-15T22:35:25.888Z,33.56
2023-03-15T22:37:57.027Z,34.50
2023-03-15T22:40:27.840Z,34.03
2023-03-15T22:42:58.424Z,33.86
2023-03-15T22:45:27.973Z,33.18
2023-03-15T22:47:58.965Z,33.60
2023-03-15T22:50:28.610Z,34.49
2023-03-15T22:52:58.475Z,33.20
2023-03-15T22:55:28.062Z,33.82
2023-03-15T22:57:57.847Z,33.85
2023-03-15T23:00:27.649Z,33.32
2023-03-15T23:02:59.033Z,33.85
2023-03-15T23:05:28.259Z,33.73
2023-03-15T23:07:57.956Z,33.78
2023-03-15T23:10:27.413Z,34.28
2023-03-15T23:12:57.268Z,34.32
2023-03-15T23:15:27.862Z,34.53
2023-03-15T23:17:58.863Z,34.65
2023-03-15T23:20:28.670Z,34.54
2023-03-15T23:22:58.518Z,34.12
2023-03-15T23:25:29.405Z,33.59
2023-03-15T23:27:59.117Z,33.95
2023-03-15T23:30:35.142Z,33.98
2023-03-15T23:33:08.593Z,34.00
2023-03-15T23:35:37.863Z,34.50
2023-03-15T23:38:08.622Z,34.69
2023-03-15T23:40:38.011Z,33.76
2023-03-15T23:43:09.433Z,34.04
2023-03-15T23:45:38.675Z,34.67
2023-03-15T23:48:09.782Z,34.65
2023-03-15T23:50:40.339Z,34.58
2023-03-15T23:53:09.917Z,34.29
2023-03-15T23:55:39.336Z,34.03
2023-03-15T23:58:08.789Z,34.27
